This is the latest recevied weather packets stored in our database for station/object K5NWZ. If no packets are shown the sender has not sent any weather packets the latest 10 day(s).
| Time | Temp. | Humidity | Pressure | Rain* | Wind** | Luminosity | Snow |
|---|---|---|---|---|---|---|---|
| 1787953556 | 25° C | 39% | 1028.9 hPa | 3.05 mm | - | 38 W/m² | - |
| 1787953251 | 25.56° C | 43% | 1028.7 hPa | 3.05 mm | - | 33 W/m² | - |
| 1787952948 | 25.56° C | 44% | 1028.7 hPa | 1.78 mm | - | 29 W/m² | - |
| 1787952642 | 30° C | 40% | 1028.7 hPa | 0 mm | - | 25 W/m² | - |
| 1787952342 | 30.56° C | 29% | 1027.5 hPa | 0 mm | - | 27 W/m² | - |
| 1787952033 | 31.67° C | 28% | 1027.2 hPa | 0 mm | - | 31 W/m² | - |
| 1787951732 | 33.33° C | 27% | 1026.8 hPa | 0 mm | - | 41 W/m² | - |
| 1787951428 | 33.89° C | 26% | 1026.6 hPa | 0 mm | - | 64 W/m² | - |
| 1787951124 | 33.89° C | 25% | 1026.5 hPa | 0 mm | - | 119 W/m² | - |
| 1787950820 | 33.89° C | 24% | 1026.3 hPa | 0 mm | - | 177 W/m² | - |
| 1787950515 | 33.89° C | 23% | 1026.5 hPa | 0 mm | - | 242 W/m² | - |
| 1787950211 | 33.89° C | 24% | 1026.6 hPa | 0 mm | - | 225 W/m² | - |
| 1787949908 | 34.44° C | 24% | 1026.7 hPa | 0 mm | - | 311 W/m² | - |
| 1787949602 | 35° C | 24% | 1026.8 hPa | 0 mm | - | 304 W/m² | - |
| 1787949296 | 33.89° C | 24% | 1026.7 hPa | 0 mm | - | 292 W/m² | - |
| 1787948991 | 33.89° C | 25% | 1026.7 hPa | 0 mm | - | 277 W/m² | - |
| 1787948687 | 33.89° C | 26% | 1026.8 hPa | 0 mm | - | 359 W/m² | - |
| 1787948383 | 33.89° C | 26% | 1026.9 hPa | 0 mm | - | 238 W/m² | - |
| 1787948083 | 34.44° C | 25% | 1026.8 hPa | 0 mm | - | 717 W/m² | - |
| 1787947781 | 33.89° C | 26% | 1026.8 hPa | 0 mm | - | 568 W/m² | - |
| 1787947480 | 33.89° C | 27% | 1026.9 hPa | 0 mm | - | 241 W/m² | - |
| 1787947175 | 33.89° C | 27% | 1027 hPa | 0 mm | - | 293 W/m² | - |
| 1787946874 | 33.33° C | 26% | 1027.4 hPa | 0 mm | - | 301 W/m² | - |
| 1787946571 | 34.44° C | 26% | 1027.2 hPa | 0 mm | - | 299 W/m² | - |
| 1787946267 | 33.89° C | 26% | 1027.4 hPa | 0 mm | - | 287 W/m² | - |
* Rain latest hour (hover to see other rain measurements)
** Current wind speed in m/s (hover to see current wind gust speed)